sensor_id;sensor_type;location;lat;lon;timestamp;P1;durP1;ratioP1;P2;durP2;ratioP2
27847;SDS011;15212;48.830;8.730;2023-07-20T00:00:13;4.20;;;2.10;;
27847;SDS011;15212;48.830;8.730;2023-07-20T00:02:41;14.47;;;2.45;;
27847;SDS011;15212;48.830;8.730;2023-07-20T00:05:10;5.60;;;2.30;;
27847;SDS011;15212;48.830;8.730;2023-07-20T00:07:38;4.00;;;2.20;;
27847;SDS011;15212;48.830;8.730;2023-07-20T00:10:07;4.67;;;2.00;;
27847;SDS011;15212;48.830;8.730;2023-07-20T00:12:35;4.58;;;2.05;;
27847;SDS011;15212;48.830;8.730;2023-07-20T00:15:04;6.83;;;2.60;;
27847;SDS011;15212;48.830;8.730;2023-07-20T00:17:33;5.53;;;2.65;;
27847;SDS011;15212;48.830;8.730;2023-07-20T00:20:03;3.65;;;2.10;;
27847;SDS011;15212;48.830;8.730;2023-07-20T00:22:32;4.85;;;2.20;;
27847;SDS011;15212;48.830;8.730;2023-07-20T00:25:01;3.27;;;2.12;;
27847;SDS011;15212;48.830;8.730;2023-07-20T00:27:30;4.35;;;2.12;;
27847;SDS011;15212;48.830;8.730;2023-07-20T00:29:58;4.75;;;2.25;;
27847;SDS011;15212;48.830;8.730;2023-07-20T00:32:26;4.17;;;2.35;;
27847;SDS011;15212;48.830;8.730;2023-07-20T00:34:55;8.68;;;2.58;;
27847;SDS011;15212;48.830;8.730;2023-07-20T00:37:23;7.60;;;2.40;;
27847;SDS011;15212;48.830;8.730;2023-07-20T00:39:52;3.60;;;2.45;;
27847;SDS011;15212;48.830;8.730;2023-07-20T00:42:21;5.62;;;2.17;;
27847;SDS011;15212;48.830;8.730;2023-07-20T00:44:49;4.33;;;2.30;;
27847;SDS011;15212;48.830;8.730;2023-07-20T00:47:18;5.35;;;2.42;;
27847;SDS011;15212;48.830;8.730;2023-07-20T00:49:46;6.92;;;2.42;;
27847;SDS011;15212;48.830;8.730;2023-07-20T00:52:15;3.77;;;2.20;;
27847;SDS011;15212;48.830;8.730;2023-07-20T00:54:44;4.83;;;2.67;;
27847;SDS011;15212;48.830;8.730;2023-07-20T00:57:14;6.08;;;2.50;;
27847;SDS011;15212;48.830;8.730;2023-07-20T00:59:43;5.83;;;2.60;;
27847;SDS011;15212;48.830;8.730;2023-07-20T01:02:12;3.87;;;2.52;;
27847;SDS011;15212;48.830;8.730;2023-07-20T01:04:40;4.08;;;2.08;;
27847;SDS011;15212;48.830;8.730;2023-07-20T01:12:33;5.12;;;2.35;;
27847;SDS011;15212;48.830;8.730;2023-07-20T01:15:15;5.85;;;2.22;;
27847;SDS011;15212;48.830;8.730;2023-07-20T01:17:43;5.60;;;2.22;;
27847;SDS011;15212;48.830;8.730;2023-07-20T01:20:15;5.28;;;2.17;;
27847;SDS011;15212;48.830;8.730;2023-07-20T01:32:15;4.55;;;2.33;;
27847;SDS011;15212;48.830;8.730;2023-07-20T01:34:46;5.33;;;2.22;;
27847;SDS011;15212;48.830;8.730;2023-07-20T01:37:16;5.20;;;2.33;;
27847;SDS011;15212;48.830;8.730;2023-07-20T01:39:46;4.35;;;2.30;;
27847;SDS011;15212;48.830;8.730;2023-07-20T01:42:14;3.75;;;1.98;;
27847;SDS011;15212;48.830;8.730;2023-07-20T01:44:43;6.53;;;2.50;;
27847;SDS011;15212;48.830;8.730;2023-07-20T01:47:11;5.83;;;2.15;;
27847;SDS011;15212;48.830;8.730;2023-07-20T01:49:39;4.72;;;2.30;;
27847;SDS011;15212;48.830;8.730;2023-07-20T01:52:08;6.30;;;2.50;;
27847;SDS011;15212;48.830;8.730;2023-07-20T01:54:36;4.33;;;2.17;;
27847;SDS011;15212;48.830;8.730;2023-07-20T01:57:05;4.20;;;2.35;;
27847;SDS011;15212;48.830;8.730;2023-07-20T01:59:33;3.75;;;2.10;;
27847;SDS011;15212;48.830;8.730;2023-07-20T02:02:01;4.92;;;1.95;;
27847;SDS011;15212;48.830;8.730;2023-07-20T02:04:30;6.20;;;1.98;;
27847;SDS011;15212;48.830;8.730;2023-07-20T02:06:58;5.95;;;2.25;;
27847;SDS011;15212;48.830;8.730;2023-07-20T02:09:27;4.55;;;2.00;;
27847;SDS011;15212;48.830;8.730;2023-07-20T02:11:55;5.40;;;2.02;;
27847;SDS011;15212;48.830;8.730;2023-07-20T02:14:24;4.75;;;2.10;;
27847;SDS011;15212;48.830;8.730;2023-07-20T02:16:52;5.22;;;2.12;;
27847;SDS011;15212;48.830;8.730;2023-07-20T02:19:22;5.50;;;2.30;;
27847;SDS011;15212;48.830;8.730;2023-07-20T02:21:52;6.25;;;2.20;;
27847;SDS011;15212;48.830;8.730;2023-07-20T02:24:21;3.77;;;2.22;;
27847;SDS011;15212;48.830;8.730;2023-07-20T02:26:50;5.20;;;2.20;;
27847;SDS011;15212;48.830;8.730;2023-07-20T02:29:19;5.45;;;2.30;;
27847;SDS011;15212;48.830;8.730;2023-07-20T02:31:47;3.90;;;2.20;;
27847;SDS011;15212;48.830;8.730;2023-07-20T02:34:16;3.80;;;1.98;;
27847;SDS011;15212;48.830;8.730;2023-07-20T02:36:44;5.17;;;2.30;;
27847;SDS011;15212;48.830;8.730;2023-07-20T02:39:14;5.45;;;2.12;;
27847;SDS011;15212;48.830;8.730;2023-07-20T02:41:42;7.08;;;2.55;;
27847;SDS011;15212;48.830;8.730;2023-07-20T02:44:11;4.80;;;2.27;;
27847;SDS011;15212;48.830;8.730;2023-07-20T02:46:40;5.03;;;2.30;;
27847;SDS011;15212;48.830;8.730;2023-07-20T02:49:09;4.37;;;2.00;;
27847;SDS011;15212;48.830;8.730;2023-07-20T02:51:37;4.95;;;2.33;;
27847;SDS011;15212;48.830;8.730;2023-07-20T02:54:05;4.95;;;2.00;;
27847;SDS011;15212;48.830;8.730;2023-07-20T02:56:35;4.95;;;2.22;;
27847;SDS011;15212;48.830;8.730;2023-07-20T02:59:03;5.92;;;2.17;;
27847;SDS011;15212;48.830;8.730;2023-07-20T03:01:31;4.87;;;2.40;;
27847;SDS011;15212;48.830;8.730;2023-07-20T03:04:00;5.97;;;2.17;;
27847;SDS011;15212;48.830;8.730;2023-07-20T03:06:29;4.17;;;2.20;;
27847;SDS011;15212;48.830;8.730;2023-07-20T03:08:58;7.80;;;2.45;;
27847;SDS011;15212;48.830;8.730;2023-07-20T03:11:26;4.60;;;2.50;;
27847;SDS011;15212;48.830;8.730;2023-07-20T03:13:55;5.75;;;2.40;;
27847;SDS011;15212;48.830;8.730;2023-07-20T03:16:23;6.75;;;2.20;;
27847;SDS011;15212;48.830;8.730;2023-07-20T03:18:52;5.40;;;2.10;;
27847;SDS011;15212;48.830;8.730;2023-07-20T03:21:21;3.92;;;1.92;;
27847;SDS011;15212;48.830;8.730;2023-07-20T03:23:49;4.50;;;2.10;;
27847;SDS011;15212;48.830;8.730;2023-07-20T03:26:17;4.83;;;2.27;;
27847;SDS011;15212;48.830;8.730;2023-07-20T03:28:46;5.35;;;2.27;;
27847;SDS011;15212;48.830;8.730;2023-07-20T03:31:15;3.45;;;2.12;;
27847;SDS011;15212;48.830;8.730;2023-07-20T03:33:44;5.03;;;2.10;;
27847;SDS011;15212;48.830;8.730;2023-07-20T03:36:12;4.95;;;2.58;;
27847;SDS011;15212;48.830;8.730;2023-07-20T03:38:40;5.45;;;2.20;;
27847;SDS011;15212;48.830;8.730;2023-07-20T03:41:09;4.83;;;2.22;;
27847;SDS011;15212;48.830;8.730;2023-07-20T03:43:37;9.45;;;2.70;;
27847;SDS011;15212;48.830;8.730;2023-07-20T03:46:06;5.62;;;2.25;;
27847;SDS011;15212;48.830;8.730;2023-07-20T03:48:34;4.87;;;2.42;;
27847;SDS011;15212;48.830;8.730;2023-07-20T03:51:03;4.60;;;2.55;;
27847;SDS011;15212;48.830;8.730;2023-07-20T03:53:31;6.67;;;2.35;;
27847;SDS011;15212;48.830;8.730;2023-07-20T03:55:59;7.33;;;2.20;;
27847;SDS011;15212;48.830;8.730;2023-07-20T03:58:28;5.40;;;2.47;;
27847;SDS011;15212;48.830;8.730;2023-07-20T04:00:57;3.47;;;2.27;;
27847;SDS011;15212;48.830;8.730;2023-07-20T04:03:25;3.95;;;2.12;;
27847;SDS011;15212;48.830;8.730;2023-07-20T04:05:54;11.20;;;2.55;;
27847;SDS011;15212;48.830;8.730;2023-07-20T04:08:23;3.83;;;2.15;;
27847;SDS011;15212;48.830;8.730;2023-07-20T04:10:52;4.67;;;2.17;;
27847;SDS011;15212;48.830;8.730;2023-07-20T04:13:20;6.45;;;2.40;;
27847;SDS011;15212;48.830;8.730;2023-07-20T04:15:49;4.92;;;2.62;;
27847;SDS011;15212;48.830;8.730;2023-07-20T04:18:17;3.22;;;1.80;;
27847;SDS011;15212;48.830;8.730;2023-07-20T04:20:46;4.42;;;2.42;;
27847;SDS011;15212;48.830;8.730;2023-07-20T04:23:14;6.65;;;2.47;;
27847;SDS011;15212;48.830;8.730;2023-07-20T04:25:43;4.50;;;2.35;;
27847;SDS011;15212;48.830;8.730;2023-07-20T04:28:12;4.75;;;2.12;;
27847;SDS011;15212;48.830;8.730;2023-07-20T04:30:40;4.22;;;2.50;;
27847;SDS011;15212;48.830;8.730;2023-07-20T04:33:08;4.08;;;2.12;;
27847;SDS011;15212;48.830;8.730;2023-07-20T04:35:48;7.30;;;2.47;;
27847;SDS011;15212;48.830;8.730;2023-07-20T04:38:20;4.85;;;2.37;;
27847;SDS011;15212;48.830;8.730;2023-07-20T04:40:49;4.70;;;2.12;;
27847;SDS011;15212;48.830;8.730;2023-07-20T04:43:18;7.65;;;2.30;;
27847;SDS011;15212;48.830;8.730;2023-07-20T04:45:46;4.87;;;2.30;;
27847;SDS011;15212;48.830;8.730;2023-07-20T04:48:16;5.20;;;2.35;;
27847;SDS011;15212;48.830;8.730;2023-07-20T04:50:45;4.95;;;2.37;;
27847;SDS011;15212;48.830;8.730;2023-07-20T04:53:13;5.22;;;2.83;;
27847;SDS011;15212;48.830;8.730;2023-07-20T04:55:47;7.10;;;2.77;;
27847;SDS011;15212;48.830;8.730;2023-07-20T04:58:23;5.75;;;2.30;;
27847;SDS011;15212;48.830;8.730;2023-07-20T05:00:51;3.27;;;2.30;;
27847;SDS011;15212;48.830;8.730;2023-07-20T05:03:20;6.58;;;2.50;;
27847;SDS011;15212;48.830;8.730;2023-07-20T05:05:49;7.28;;;2.60;;
27847;SDS011;15212;48.830;8.730;2023-07-20T05:08:17;5.12;;;2.33;;
27847;SDS011;15212;48.830;8.730;2023-07-20T05:10:47;4.45;;;2.12;;
27847;SDS011;15212;48.830;8.730;2023-07-20T05:13:16;5.67;;;2.25;;
27847;SDS011;15212;48.830;8.730;2023-07-20T05:15:45;6.08;;;2.30;;
27847;SDS011;15212;48.830;8.730;2023-07-20T05:18:13;8.58;;;2.50;;
27847;SDS011;15212;48.830;8.730;2023-07-20T05:20:45;6.03;;;2.20;;
27847;SDS011;15212;48.830;8.730;2023-07-20T05:23:17;7.62;;;2.30;;
27847;SDS011;15212;48.830;8.730;2023-07-20T05:25:46;8.00;;;2.58;;
27847;SDS011;15212;48.830;8.730;2023-07-20T05:28:25;4.30;;;2.20;;
27847;SDS011;15212;48.830;8.730;2023-07-20T05:30:54;4.62;;;2.20;;
27847;SDS011;15212;48.830;8.730;2023-07-20T05:33:24;4.58;;;2.30;;
27847;SDS011;15212;48.830;8.730;2023-07-20T05:35:53;6.15;;;2.27;;
27847;SDS011;15212;48.830;8.730;2023-07-20T05:38:21;6.30;;;2.37;;
27847;SDS011;15212;48.830;8.730;2023-07-20T05:40:49;3.72;;;2.17;;
27847;SDS011;15212;48.830;8.730;2023-07-20T05:43:18;8.75;;;2.50;;
27847;SDS011;15212;48.830;8.730;2023-07-20T05:45:46;3.83;;;2.20;;
27847;SDS011;15212;48.830;8.730;2023-07-20T05:48:15;4.42;;;2.15;;
27847;SDS011;15212;48.830;8.730;2023-07-20T05:50:43;3.58;;;2.00;;
27847;SDS011;15212;48.830;8.730;2023-07-20T05:53:12;4.92;;;2.12;;
27847;SDS011;15212;48.830;8.730;2023-07-20T05:55:40;6.50;;;2.15;;
27847;SDS011;15212;48.830;8.730;2023-07-20T05:58:08;4.83;;;1.98;;
27847;SDS011;15212;48.830;8.730;2023-07-20T06:00:37;3.92;;;2.17;;
27847;SDS011;15212;48.830;8.730;2023-07-20T06:03:05;4.20;;;2.05;;
27847;SDS011;15212;48.830;8.730;2023-07-20T06:05:34;4.53;;;2.20;;
27847;SDS011;15212;48.830;8.730;2023-07-20T06:08:02;7.03;;;2.37;;
27847;SDS011;15212;48.830;8.730;2023-07-20T06:10:31;4.97;;;1.95;;
27847;SDS011;15212;48.830;8.730;2023-07-20T06:13:00;5.22;;;1.80;;
27847;SDS011;15212;48.830;8.730;2023-07-20T06:15:32;2.67;;;1.90;;
27847;SDS011;15212;48.830;8.730;2023-07-20T06:18:01;8.00;;;2.08;;
27847;SDS011;15212;48.830;8.730;2023-07-20T06:20:30;4.70;;;2.10;;
27847;SDS011;15212;48.830;8.730;2023-07-20T06:22:58;5.72;;;1.77;;
27847;SDS011;15212;48.830;8.730;2023-07-20T06:25:26;6.72;;;1.98;;
27847;SDS011;15212;48.830;8.730;2023-07-20T06:27:55;5.70;;;1.95;;
27847;SDS011;15212;48.830;8.730;2023-07-20T06:30:24;5.67;;;1.92;;
27847;SDS011;15212;48.830;8.730;2023-07-20T06:32:52;2.62;;;1.42;;
27847;SDS011;15212;48.830;8.730;2023-07-20T06:35:20;6.42;;;1.75;;
27847;SDS011;15212;48.830;8.730;2023-07-20T06:37:49;2.10;;;1.47;;
27847;SDS011;15212;48.830;8.730;2023-07-20T06:40:17;3.47;;;1.67;;
27847;SDS011;15212;48.830;8.730;2023-07-20T06:42:46;4.75;;;1.75;;
27847;SDS011;15212;48.830;8.730;2023-07-20T06:45:14;4.20;;;1.75;;
27847;SDS011;15212;48.830;8.730;2023-07-20T06:47:43;3.72;;;1.70;;
27847;SDS011;15212;48.830;8.730;2023-07-20T06:50:12;3.85;;;1.47;;
27847;SDS011;15212;48.830;8.730;2023-07-20T06:52:40;7.47;;;1.75;;
27847;SDS011;15212;48.830;8.730;2023-07-20T06:55:09;5.35;;;1.60;;
27847;SDS011;15212;48.830;8.730;2023-07-20T06:57:37;4.28;;;1.92;;
27847;SDS011;15212;48.830;8.730;2023-07-20T07:00:06;3.65;;;1.80;;
27847;SDS011;15212;48.830;8.730;2023-07-20T07:02:35;7.20;;;1.70;;
27847;SDS011;15212;48.830;8.730;2023-07-20T07:05:03;3.80;;;1.80;;
27847;SDS011;15212;48.830;8.730;2023-07-20T07:07:32;4.37;;;2.02;;
27847;SDS011;15212;48.830;8.730;2023-07-20T07:10:01;4.35;;;1.85;;
27847;SDS011;15212;48.830;8.730;2023-07-20T07:12:31;3.12;;;1.82;;
27847;SDS011;15212;48.830;8.730;2023-07-20T07:15:00;7.70;;;1.90;;
27847;SDS011;15212;48.830;8.730;2023-07-20T07:17:32;4.65;;;2.25;;
27847;SDS011;15212;48.830;8.730;2023-07-20T07:20:01;5.92;;;2.17;;
27847;SDS011;15212;48.830;8.730;2023-07-20T07:22:29;4.75;;;1.92;;
27847;SDS011;15212;48.830;8.730;2023-07-20T07:24:58;5.00;;;2.05;;
27847;SDS011;15212;48.830;8.730;2023-07-20T07:27:26;4.80;;;2.05;;
27847;SDS011;15212;48.830;8.730;2023-07-20T07:29:55;6.75;;;1.82;;
27847;SDS011;15212;48.830;8.730;2023-07-20T07:32:23;2.75;;;1.82;;
27847;SDS011;15212;48.830;8.730;2023-07-20T07:34:55;5.95;;;1.77;;
27847;SDS011;15212;48.830;8.730;2023-07-20T07:37:24;8.28;;;2.00;;
27847;SDS011;15212;48.830;8.730;2023-07-20T07:39:52;7.95;;;2.08;;
27847;SDS011;15212;48.830;8.730;2023-07-20T07:42:21;5.33;;;2.00;;
27847;SDS011;15212;48.830;8.730;2023-07-20T07:44:49;7.00;;;2.40;;
27847;SDS011;15212;48.830;8.730;2023-07-20T07:47:18;3.95;;;2.10;;
27847;SDS011;15212;48.830;8.730;2023-07-20T07:49:46;5.75;;;2.47;;
27847;SDS011;15212;48.830;8.730;2023-07-20T07:52:15;4.95;;;2.25;;
27847;SDS011;15212;48.830;8.730;2023-07-20T07:54:44;8.43;;;2.25;;
27847;SDS011;15212;48.830;8.730;2023-07-20T07:57:12;4.37;;;2.10;;
27847;SDS011;15212;48.830;8.730;2023-07-20T07:59:40;6.70;;;2.12;;
27847;SDS011;15212;48.830;8.730;2023-07-20T08:02:09;4.00;;;2.33;;
27847;SDS011;15212;48.830;8.730;2023-07-20T08:04:37;3.85;;;2.10;;
27847;SDS011;15212;48.830;8.730;2023-07-20T08:07:06;8.13;;;2.55;;
27847;SDS011;15212;48.830;8.730;2023-07-20T08:09:34;5.78;;;2.17;;
27847;SDS011;15212;48.830;8.730;2023-07-20T08:12:03;10.10;;;2.33;;
27847;SDS011;15212;48.830;8.730;2023-07-20T08:14:32;4.15;;;2.20;;
27847;SDS011;15212;48.830;8.730;2023-07-20T08:17:00;5.50;;;2.08;;
27847;SDS011;15212;48.830;8.730;2023-07-20T08:19:28;5.25;;;2.42;;
27847;SDS011;15212;48.830;8.730;2023-07-20T08:21:57;3.37;;;2.20;;
27847;SDS011;15212;48.830;8.730;2023-07-20T08:24:25;5.37;;;2.10;;
27847;SDS011;15212;48.830;8.730;2023-07-20T08:26:54;4.12;;;1.98;;
27847;SDS011;15212;48.830;8.730;2023-07-20T08:29:22;4.00;;;2.00;;
27847;SDS011;15212;48.830;8.730;2023-07-20T08:31:51;3.10;;;2.05;;
27847;SDS011;15212;48.830;8.730;2023-07-20T08:34:20;10.35;;;2.45;;
27847;SDS011;15212;48.830;8.730;2023-07-20T08:36:48;4.72;;;2.20;;
27847;SDS011;15212;48.830;8.730;2023-07-20T08:39:17;4.95;;;2.20;;
27847;SDS011;15212;48.830;8.730;2023-07-20T08:41:47;4.40;;;1.82;;
27847;SDS011;15212;48.830;8.730;2023-07-20T08:44:16;2.65;;;1.62;;
27847;SDS011;15212;48.830;8.730;2023-07-20T08:46:45;5.53;;;2.10;;
27847;SDS011;15212;48.830;8.730;2023-07-20T08:49:15;4.95;;;2.25;;
27847;SDS011;15212;48.830;8.730;2023-07-20T08:51:45;6.17;;;2.08;;
27847;SDS011;15212;48.830;8.730;2023-07-20T08:54:15;2.85;;;1.65;;
27847;SDS011;15212;48.830;8.730;2023-07-20T08:56:45;2.95;;;1.57;;
27847;SDS011;15212;48.830;8.730;2023-07-20T08:59:15;2.98;;;1.70;;
27847;SDS011;15212;48.830;8.730;2023-07-20T09:01:45;3.10;;;1.60;;
27847;SDS011;15212;48.830;8.730;2023-07-20T09:04:14;3.67;;;1.52;;
27847;SDS011;15212;48.830;8.730;2023-07-20T09:06:43;2.37;;;1.40;;
27847;SDS011;15212;48.830;8.730;2023-07-20T09:09:12;3.80;;;1.40;;
27847;SDS011;15212;48.830;8.730;2023-07-20T09:11:41;1.80;;;1.40;;
27847;SDS011;15212;48.830;8.730;2023-07-20T09:14:10;3.62;;;1.70;;
27847;SDS011;15212;48.830;8.730;2023-07-20T09:16:48;3.40;;;1.50;;
27847;SDS011;15212;48.830;8.730;2023-07-20T09:19:21;2.05;;;1.40;;
27847;SDS011;15212;48.830;8.730;2023-07-20T09:21:51;2.27;;;1.30;;
27847;SDS011;15212;48.830;8.730;2023-07-20T09:24:20;2.70;;;1.40;;
27847;SDS011;15212;48.830;8.730;2023-07-20T09:26:48;3.83;;;1.40;;
27847;SDS011;15212;48.830;8.730;2023-07-20T09:29:20;3.58;;;1.52;;
27847;SDS011;15212;48.830;8.730;2023-07-20T09:32:01;2.12;;;1.45;;
27847;SDS011;15212;48.830;8.730;2023-07-20T09:34:31;2.90;;;1.27;;
27847;SDS011;15212;48.830;8.730;2023-07-20T09:36:59;1.87;;;1.30;;
27847;SDS011;15212;48.830;8.730;2023-07-20T09:39:28;3.27;;;1.10;;
27847;SDS011;15212;48.830;8.730;2023-07-20T09:42:00;4.37;;;1.35;;
27847;SDS011;15212;48.830;8.730;2023-07-20T09:44:30;2.85;;;1.40;;
27847;SDS011;15212;48.830;8.730;2023-07-20T09:46:59;1.30;;;1.10;;
27847;SDS011;15212;48.830;8.730;2023-07-20T09:49:29;2.27;;;1.20;;
27847;SDS011;15212;48.830;8.730;2023-07-20T09:51:58;1.40;;;1.15;;
27847;SDS011;15212;48.830;8.730;2023-07-20T09:54:28;2.80;;;1.30;;
27847;SDS011;15212;48.830;8.730;2023-07-20T09:56:58;3.12;;;1.50;;
27847;SDS011;15212;48.830;8.730;2023-07-20T09:59:27;2.67;;;1.20;;
27847;SDS011;15212;48.830;8.730;2023-07-20T10:01:58;2.92;;;1.25;;
27847;SDS011;15212;48.830;8.730;2023-07-20T10:04:28;2.10;;;1.40;;
27847;SDS011;15212;48.830;8.730;2023-07-20T10:06:58;3.17;;;1.22;;
27847;SDS011;15212;48.830;8.730;2023-07-20T10:09:29;3.33;;;1.30;;
27847;SDS011;15212;48.830;8.730;2023-07-20T10:11:59;2.62;;;1.30;;
27847;SDS011;15212;48.830;8.730;2023-07-20T10:14:28;2.47;;;1.30;;
27847;SDS011;15212;48.830;8.730;2023-07-20T10:17:00;2.60;;;1.40;;
27847;SDS011;15212;48.830;8.730;2023-07-20T10:22:14;2.98;;;1.37;;
27847;SDS011;15212;48.830;8.730;2023-07-20T10:24:52;3.37;;;1.20;;
27847;SDS011;15212;48.830;8.730;2023-07-20T10:27:23;3.50;;;1.30;;
27847;SDS011;15212;48.830;8.730;2023-07-20T10:29:53;2.33;;;1.30;;
27847;SDS011;15212;48.830;8.730;2023-07-20T10:32:23;2.77;;;1.30;;
27847;SDS011;15212;48.830;8.730;2023-07-20T10:34:51;4.40;;;1.30;;
27847;SDS011;15212;48.830;8.730;2023-07-20T10:40:26;2.77;;;1.30;;
27847;SDS011;15212;48.830;8.730;2023-07-20T10:43:04;2.30;;;1.30;;
27847;SDS011;15212;48.830;8.730;2023-07-20T10:45:41;2.50;;;1.17;;
27847;SDS011;15212;48.830;8.730;2023-07-20T10:53:42;1.77;;;0.93;;
27847;SDS011;15212;48.830;8.730;2023-07-20T10:56:13;4.33;;;1.20;;
27847;SDS011;15212;48.830;8.730;2023-07-20T10:58:49;1.50;;;1.10;;
27847;SDS011;15212;48.830;8.730;2023-07-20T11:01:19;2.87;;;1.10;;
27847;SDS011;15212;48.830;8.730;2023-07-20T11:03:50;3.20;;;1.35;;
27847;SDS011;15212;48.830;8.730;2023-07-20T11:09:07;2.52;;;1.00;;
27847;SDS011;15212;48.830;8.730;2023-07-20T11:11:39;2.17;;;1.10;;
27847;SDS011;15212;48.830;8.730;2023-07-20T11:14:20;1.72;;;1.10;;
27847;SDS011;15212;48.830;8.730;2023-07-20T11:16:51;1.72;;;1.02;;
27847;SDS011;15212;48.830;8.730;2023-07-20T11:19:21;2.30;;;0.98;;
27847;SDS011;15212;48.830;8.730;2023-07-20T11:21:57;2.33;;;1.02;;
27847;SDS011;15212;48.830;8.730;2023-07-20T11:24:25;2.25;;;1.17;;
27847;SDS011;15212;48.830;8.730;2023-07-20T11:26:54;1.85;;;1.10;;
27847;SDS011;15212;48.830;8.730;2023-07-20T11:29:23;1.80;;;1.22;;
27847;SDS011;15212;48.830;8.730;2023-07-20T11:31:54;2.17;;;1.20;;
27847;SDS011;15212;48.830;8.730;2023-07-20T11:34:25;2.62;;;1.20;;
27847;SDS011;15212;48.830;8.730;2023-07-20T11:36:55;2.05;;;1.10;;
27847;SDS011;15212;48.830;8.730;2023-07-20T11:39:24;2.30;;;1.25;;
27847;SDS011;15212;48.830;8.730;2023-07-20T11:41:54;2.10;;;1.07;;
27847;SDS011;15212;48.830;8.730;2023-07-20T11:44:27;3.25;;;1.20;;
27847;SDS011;15212;48.830;8.730;2023-07-20T11:49:37;5.67;;;1.40;;
27847;SDS011;15212;48.830;8.730;2023-07-20T11:52:13;2.65;;;0.90;;
27847;SDS011;15212;48.830;8.730;2023-07-20T11:54:43;2.17;;;1.00;;
27847;SDS011;15212;48.830;8.730;2023-07-20T11:57:19;3.42;;;0.95;;
27847;SDS011;15212;48.830;8.730;2023-07-20T12:00:02;2.87;;;1.30;;
27847;SDS011;15212;48.830;8.730;2023-07-20T12:02:33;2.87;;;1.35;;
27847;SDS011;15212;48.830;8.730;2023-07-20T12:05:02;3.25;;;1.27;;
27847;SDS011;15212;48.830;8.730;2023-07-20T12:07:32;3.42;;;1.17;;
27847;SDS011;15212;48.830;8.730;2023-07-20T12:10:04;3.85;;;1.27;;
27847;SDS011;15212;48.830;8.730;2023-07-20T12:12:38;1.90;;;1.30;;
27847;SDS011;15212;48.830;8.730;2023-07-20T12:15:25;3.35;;;1.45;;
27847;SDS011;15212;48.830;8.730;2023-07-20T12:17:55;3.17;;;1.27;;
27847;SDS011;15212;48.830;8.730;2023-07-20T12:23:04;1.67;;;1.10;;
27847;SDS011;15212;48.830;8.730;2023-07-20T12:25:39;3.10;;;1.25;;
27847;SDS011;15212;48.830;8.730;2023-07-20T12:28:15;3.77;;;1.00;;
27847;SDS011;15212;48.830;8.730;2023-07-20T12:30:47;1.45;;;0.98;;
27847;SDS011;15212;48.830;8.730;2023-07-20T12:33:17;3.40;;;0.98;;
27847;SDS011;15212;48.830;8.730;2023-07-20T12:35:46;2.22;;;0.82;;
27847;SDS011;15212;48.830;8.730;2023-07-20T12:38:14;1.32;;;0.98;;
27847;SDS011;15212;48.830;8.730;2023-07-20T12:40:43;1.57;;;1.10;;
27847;SDS011;15212;48.830;8.730;2023-07-20T12:43:12;1.25;;;0.90;;
27847;SDS011;15212;48.830;8.730;2023-07-20T12:45:40;2.05;;;1.00;;
27847;SDS011;15212;48.830;8.730;2023-07-20T12:48:09;2.37;;;1.02;;
27847;SDS011;15212;48.830;8.730;2023-07-20T12:50:37;1.50;;;0.88;;
27847;SDS011;15212;48.830;8.730;2023-07-20T12:53:06;2.33;;;1.10;;
27847;SDS011;15212;48.830;8.730;2023-07-20T12:55:34;2.52;;;1.20;;
27847;SDS011;15212;48.830;8.730;2023-07-20T12:58:04;1.40;;;0.82;;
27847;SDS011;15212;48.830;8.730;2023-07-20T13:00:33;2.08;;;1.05;;
27847;SDS011;15212;48.830;8.730;2023-07-20T13:03:02;1.75;;;1.00;;
27847;SDS011;15212;48.830;8.730;2023-07-20T13:05:32;2.85;;;1.27;;
27847;SDS011;15212;48.830;8.730;2023-07-20T13:08:02;2.90;;;1.12;;
27847;SDS011;15212;48.830;8.730;2023-07-20T13:10:31;1.57;;;1.17;;
27847;SDS011;15212;48.830;8.730;2023-07-20T13:13:00;2.55;;;1.07;;
27847;SDS011;15212;48.830;8.730;2023-07-20T13:15:32;2.45;;;1.02;;
27847;SDS011;15212;48.830;8.730;2023-07-20T13:18:08;2.50;;;1.40;;
27847;SDS011;15212;48.830;8.730;2023-07-20T13:20:38;2.30;;;1.07;;
27847;SDS011;15212;48.830;8.730;2023-07-20T13:23:06;2.67;;;1.37;;
27847;SDS011;15212;48.830;8.730;2023-07-20T13:25:34;2.83;;;1.00;;
27847;SDS011;15212;48.830;8.730;2023-07-20T13:28:04;2.42;;;1.35;;
27847;SDS011;15212;48.830;8.730;2023-07-20T13:30:32;2.17;;;1.27;;
27847;SDS011;15212;48.830;8.730;2023-07-20T13:33:01;2.35;;;1.22;;
27847;SDS011;15212;48.830;8.730;2023-07-20T13:35:29;2.33;;;1.20;;
27847;SDS011;15212;48.830;8.730;2023-07-20T13:37:58;1.92;;;1.20;;
27847;SDS011;15212;48.830;8.730;2023-07-20T13:40:26;3.42;;;1.10;;
27847;SDS011;15212;48.830;8.730;2023-07-20T13:42:55;1.62;;;0.98;;
27847;SDS011;15212;48.830;8.730;2023-07-20T13:45:23;2.02;;;1.25;;
27847;SDS011;15212;48.830;8.730;2023-07-20T13:47:52;2.70;;;1.12;;
27847;SDS011;15212;48.830;8.730;2023-07-20T13:50:20;3.30;;;1.17;;
27847;SDS011;15212;48.830;8.730;2023-07-20T13:52:48;1.67;;;1.12;;
27847;SDS011;15212;48.830;8.730;2023-07-20T13:55:17;1.85;;;1.12;;
27847;SDS011;15212;48.830;8.730;2023-07-20T13:57:45;1.57;;;1.07;;
27847;SDS011;15212;48.830;8.730;2023-07-20T14:00:14;3.27;;;1.30;;
27847;SDS011;15212;48.830;8.730;2023-07-20T14:02:43;2.33;;;1.15;;
27847;SDS011;15212;48.830;8.730;2023-07-20T14:05:11;1.22;;;1.00;;
27847;SDS011;15212;48.830;8.730;2023-07-20T14:07:41;2.30;;;1.10;;
27847;SDS011;15212;48.830;8.730;2023-07-20T14:10:10;2.50;;;1.20;;
27847;SDS011;15212;48.830;8.730;2023-07-20T14:12:38;1.52;;;1.10;;
27847;SDS011;15212;48.830;8.730;2023-07-20T14:15:07;1.32;;;1.02;;
27847;SDS011;15212;48.830;8.730;2023-07-20T14:17:36;1.70;;;1.10;;
27847;SDS011;15212;48.830;8.730;2023-07-20T14:20:05;2.52;;;1.30;;
27847;SDS011;15212;48.830;8.730;2023-07-20T14:22:34;2.40;;;1.20;;
27847;SDS011;15212;48.830;8.730;2023-07-20T14:25:03;2.20;;;1.20;;
27847;SDS011;15212;48.830;8.730;2023-07-20T14:27:31;2.25;;;1.30;;
27847;SDS011;15212;48.830;8.730;2023-07-20T14:30:00;2.15;;;1.25;;
27847;SDS011;15212;48.830;8.730;2023-07-20T14:32:28;2.75;;;1.30;;
27847;SDS011;15212;48.830;8.730;2023-07-20T14:34:58;2.27;;;1.40;;
27847;SDS011;15212;48.830;8.730;2023-07-20T14:37:27;3.10;;;1.35;;
27847;SDS011;15212;48.830;8.730;2023-07-20T14:39:55;2.50;;;1.27;;
27847;SDS011;15212;48.830;8.730;2023-07-20T14:42:23;2.55;;;1.20;;
27847;SDS011;15212;48.830;8.730;2023-07-20T14:44:52;2.70;;;1.20;;
27847;SDS011;15212;48.830;8.730;2023-07-20T14:47:20;1.67;;;1.22;;
27847;SDS011;15212;48.830;8.730;2023-07-20T14:49:49;2.90;;;1.40;;
27847;SDS011;15212;48.830;8.730;2023-07-20T14:52:17;3.22;;;1.22;;
27847;SDS011;15212;48.830;8.730;2023-07-20T14:54:45;2.80;;;1.15;;
27847;SDS011;15212;48.830;8.730;2023-07-20T14:57:14;1.60;;;1.12;;
27847;SDS011;15212;48.830;8.730;2023-07-20T14:59:42;4.83;;;1.57;;
27847;SDS011;15212;48.830;8.730;2023-07-20T15:02:11;2.70;;;1.20;;
27847;SDS011;15212;48.830;8.730;2023-07-20T15:04:46;2.42;;;1.12;;
27847;SDS011;15212;48.830;8.730;2023-07-20T15:07:17;2.30;;;1.37;;
27847;SDS011;15212;48.830;8.730;2023-07-20T15:09:48;2.90;;;1.25;;
27847;SDS011;15212;48.830;8.730;2023-07-20T15:12:17;2.25;;;1.25;;
27847;SDS011;15212;48.830;8.730;2023-07-20T15:14:49;2.87;;;1.30;;
27847;SDS011;15212;48.830;8.730;2023-07-20T15:17:20;1.92;;;1.15;;
27847;SDS011;15212;48.830;8.730;2023-07-20T15:19:48;2.17;;;1.27;;
27847;SDS011;15212;48.830;8.730;2023-07-20T15:22:17;2.37;;;1.10;;
27847;SDS011;15212;48.830;8.730;2023-07-20T15:24:45;2.75;;;1.45;;
27847;SDS011;15212;48.830;8.730;2023-07-20T15:27:13;1.90;;;1.30;;
27847;SDS011;15212;48.830;8.730;2023-07-20T15:29:42;3.58;;;1.20;;
27847;SDS011;15212;48.830;8.730;2023-07-20T15:32:11;2.45;;;1.17;;
27847;SDS011;15212;48.830;8.730;2023-07-20T15:34:41;2.90;;;1.40;;